Terminal Aerodrome Forecast
Issued by NWS Bismarck, ND

Home | Current Version | Previous Version | Graphics & Text | Print | Product List | Glossary On
Versions: 1 2 3 4 5 6 7 8 9 10 11 12 13 14 15 16 17
000
FTUS43 KBIS 142300
TAFISN
TAF
KISN 142336Z 1500/1524 35015KT 3SM -FZRA BR OVC008
     FM150400 34016KT 4SM BR OVC003
     FM151200 34015KT P6SM OVC007
     FM151600 35011KT P6SM OVC015=

USA.gov is the U.S. government's official web portal to all federal, state and local government web resources and services.